Flight Track Log - Related Links

Times and Time Zones

All times are in EDT time to prevent confusion due to time zone crossing. See the GJS3657 flight status page for this flight to view local times or setup timezone preferences in your user account.

Time Position Orientation Groundspeed Altitude Reporting Facility
EDT Latitude Longitude Course Direction KTS MPH feet Rate Location/Type
Wed 08:10:30 PM 36.2292 -80.0542 308° West 292 336 8,300  Level Atlanta Center
Wed 08:11:30 PM 36.2836 -80.1211 315° West 275 316 11,100 2,650 Climbing Atlanta Center
Wed 08:12:30 PM 36.3283 -80.2169 300° West 275 316 13,600 2,000 Climbing Atlanta Center
Wed 08:13:30 PM 36.4075 -80.2803 327° Northwest 288 331 15,100 1,800 Climbing Atlanta Center
Wed 08:14:00 PM 36.4404 -80.5618 307° West  Level FlightAware
Wed 08:14:30 PM 36.4928 -80.3433 329° Northwest 340 391 17,200  Level Atlanta Center
Wed 08:15:00 PM 36.5021 -80.6634 308° West  Level FlightAware
Wed 08:15:30 PM 36.5803 -80.4117 328° Northwest 364 419 18,800  Level Atlanta Center
Wed 08:16:30 PM 36.6656 -80.4750 329° Northwest 378 435 20,000 1,150 Climbing Atlanta Center
Wed 08:17:30 PM 36.7636 -80.5483 329° Northwest 398 458 21,100 1,300 Climbing Atlanta Center
Wed 08:18:30 PM 36.8636 -80.6244 329° Northwest 410 472 22,600 1,450 Climbing Atlanta Center
Wed 08:19:30 PM 36.9639 -80.7006 329° Northwest 418 481 24,000 1,268 Climbing Atlanta Center
Wed 08:21:44 PM 37.2033 -80.8781 329° Northwest 436 502 26,700 1,108 Climbing Indianapolis Center
Wed 08:22:45 PM 37.3042 -80.9553 329° Northwest 437 503 27,600 927 Climbing Indianapolis Center
Wed 08:23:47 PM 37.4111 -81.0369 329° Northwest 451 519 28,600 1,073 Climbing Indianapolis Center
Wed 08:24:48 PM 37.5367 -81.1336 329° Northwest 453 521 29,800 1,073 Climbing Indianapolis Center
Wed 08:25:50 PM 37.6439 -81.2161 329° Northwest 459 528 30,800 976 Climbing Indianapolis Center
Wed 08:26:51 PM 37.7503 -81.2978 329° Northwest 459 528 31,800 927 Climbing Indianapolis Center
Wed 08:27:53 PM 37.8517 -81.3767 328° Northwest 463 533 32,700 1,024 Climbing Indianapolis Center
Wed 08:28:54 PM 37.9825 -81.4792 328° Northwest 460 529 33,900 1,073 Climbing Indianapolis Center
Wed 08:29:56 PM 38.0917 -81.5647 328° Northwest 460 529 34,900 976 Climbing Indianapolis Center
Wed 08:30:57 PM 38.1992 -81.6489 328° Northwest 453 521 35,900 829 Climbing Indianapolis Center
Wed 08:31:59 PM 38.3081 -81.7361 328° Northwest 457 526 36,600 683 Climbing Indianapolis Center
Wed 08:33:00 PM 38.4081 -81.8372 322° Northwest 456 525 37,300 683 Climbing Indianapolis Center
Wed 08:34:02 PM 38.5019 -81.9431 319° Northwest 449 517 38,000 341 Climbing Indianapolis Center
Wed 08:35:03 PM 38.5961 -82.0486 319° Northwest 448 516 38,000  Level Indianapolis Center
Wed 08:36:05 PM 38.6869 -82.1536 318° Northwest 436 502 38,000  Level Indianapolis Center
Wed 08:37:06 PM 38.7775 -82.2561 319° Northwest 433 498 38,000  Level Indianapolis Center
Wed 08:38:08 PM 38.8681 -82.3622 318° Northwest 439 505 38,000  Level Indianapolis Center
Wed 08:39:09 PM 38.9603 -82.4689 318° Northwest 445 512 38,000  Level Indianapolis Center
Wed 08:40:11 PM 39.0528 -82.5744 318° Northwest 445 512 38,000  Level Indianapolis Center
Wed 08:41:12 PM 39.1636 -82.7058 317° Northwest 452 520 38,000  Level Indianapolis Center
Wed 08:42:14 PM 39.2553 -82.8131 318° Northwest 445 512 38,000  Level Indianapolis Center
Wed 08:43:15 PM 39.3481 -82.9197 318° Northwest 445 512 38,000  Level Indianapolis Center
Wed 08:44:17 PM 39.4397 -83.0272 318° Northwest 445 512 38,000  Level Indianapolis Center
Wed 08:45:18 PM 39.5308 -83.1350 318° Northwest 443 510 38,000  Level Indianapolis Center
Wed 08:46:20 PM 39.6231 -83.2428 318° Northwest 445 512 38,000  Level Indianapolis Center
Wed 08:47:21 PM 39.7144 -83.3511 318° Northwest 444 511 38,000  Level Indianapolis Center
Wed 08:48:22 PM 39.8056 -83.4600 317° Northwest 445 512 38,000  Level Indianapolis Center
Wed 08:49:24 PM 39.8956 -83.5694 317° Northwest 443 510 38,000  Level Indianapolis Center
Wed 08:50:25 PM 39.9925 -83.6853 318° Northwest 437 503 38,000  Level Indianapolis Center
Wed 08:51:27 PM 40.0836 -83.7939 318° Northwest 438 504 38,000  Level Indianapolis Center
Wed 08:52:28 PM 40.1828 -83.9142 317° Northwest 438 504 38,000  Level Indianapolis Center
Wed 08:53:30 PM 40.2714 -84.0203 318° Northwest 436 502 38,000  Level Indianapolis Center
Wed 08:54:31 PM 40.3467 -84.1369 310° West 428 493 38,000  Level Indianapolis Center
Wed 08:55:32 PM 40.4194 -84.2575 308° West 424 488 38,000 -537 Level Indianapolis Center
Wed 08:56:34 PM 40.4922 -84.3764 309° West 421 484 36,900 -1,317 Descending Indianapolis Center
Wed 08:57:35 PM 40.5656 -84.4958 309° West 422 486 35,300 -1,415 Descending Indianapolis Center
Wed 08:58:37 PM 40.6375 -84.6164 308° West 422 486 34,000 -634 Descending Indianapolis Center
Wed 08:59:38 PM 40.7258 -84.7642 308° West 427 491 34,000  Level Indianapolis Center
Wed 09:00:39 PM 40.8014 -84.8911 308° West 438 504 34,000 -49 Level Indianapolis Center
Wed 09:01:41 PM 40.8639 -85.0303 301° West 445 512 33,900 -780 Descending Indianapolis Center
Wed 09:02:42 PM 40.9231 -85.1692 299° West 438 504 32,400 -1,463 Descending Indianapolis Center
Wed 09:03:44 PM 40.9822 -85.3092 299° West 439 505 30,900 -1,463 Descending Indianapolis Center
Wed 09:04:45 PM 41.0425 -85.4531 299° West 445 512 29,400 -1,475 Descending Indianapolis Center
Wed 09:05:46 PM 41.1011 -85.5922 299° West 438 504 27,900 -1,610 Descending Indianapolis Center
Wed 09:06:48 PM 41.1697 -85.7592 299° West 435 501 26,100 -1,415 Descending Indianapolis Center
Wed 09:07:49 PM 41.2244 -85.8947 298° West 428 493 25,000 -878 Descending Indianapolis Center
Wed 09:08:51 PM 41.2822 -86.0242 301° West 419 482 24,300 -1,415 Descending Indianapolis Center
Wed 09:09:52 PM 41.3431 -86.1494 303° West 413 475 22,100 -2,066 Descending Indianapolis Center
Wed 09:10:53 PM 41.4017 -86.2700 303° West 403 464 20,100 -1,947 Descending Indianapolis Center
Wed 09:12:23 PM 41.4867 -86.4442 303° West 376 433 17,200 -1,934 Descending Chicago Center
Wed 09:13:25 PM 41.5425 -86.5586 303° West 370 426 15,200 -1,920 Descending Chicago Center
Wed 09:14:28 PM 41.5986 -86.6744 303° West 370 426 13,200 -1,536 Descending Chicago Center
Wed 09:15:30 PM 41.6697 -86.7911 309° West 345 397 12,000 -532 Descending Chicago Center
Wed 09:16:32 PM 41.7700 -86.8083 353° North 360 414 12,100 -194 Climbing Chicago Center
Wed 09:17:34 PM 41.8642 -86.8347 348° North 348 400 11,600 -919 Descending Chicago Center
Wed 09:18:36 PM 41.9044 -86.9467 296° West 344 396 10,200 -774 Descending Chicago Center
Wed 09:19:38 PM 41.9303 -87.0669 286° West 338 389 10,000 -339 Descending Chicago Center
Wed 09:20:40 PM 41.9508 -87.1708 285° West 294 338 9,500 -1,258 Descending Chicago Center
Wed 09:21:42 PM 41.9733 -87.2858 285° West 269 310 7,400 -1,258 Descending Chicago Center
Wed 09:22:44 PM 41.9794 -87.3853 275° West 268 308 6,900 -240 Descending Chicago Center
Wed 09:23:47 PM 41.9797 -87.4731 270° West 255 293 6,900 -672 Level Chicago Center
Wed 09:24:49 PM 41.9817 -87.5706 272° West 229 264 5,500 -1,306 Descending Chicago Center
Wed 09:25:51 PM 41.9814 -87.6469 270° West 215 247 4,200 -1,065 Descending Chicago Center
Wed 09:26:53 PM 41.9822 -87.7044 271° West 179 206 3,300 -871 Descending Chicago Center
Wed 09:27:55 PM 41.9836 -87.7631 272° West 165 190 2,400 -726 Descending Chicago Center
Wed 09:28:57 PM 41.9836 -87.8217 270° West 161 185 1,800 -581 Descending Chicago Center
Wed 09:31:00 PM 41.9667 -87.9000 270° West  Level FlightAware

Login

Don't have an account? Register now (free) for customized features, flight alerts, and more!